Skip Navigation Links
NOAA logo - Click to go to the NOAA homepage
NOAA's National Weather Service
Alaska Aviation Weather Unit
  NWS logo - Click to go to the NWS homepage
Left Navbar Graphic     02 AKDT = 10 GMT

   
NOAA is celebrating 200 years of science, service, and stewardship. Visit the NOAA 200th celebration Web site to learn more.
USA.gov is the U.S. Government's official Web portal to all Federal, state and local government Web resources and services.
Facebook
NWS on Facebook

AAWU Home :: Display TAF Add Bookmark
PAFM 270456Z AUTO 04005KT 10SM CLR M16/M22 A2999 RMK AO2 SLP172
     T11561217 FZRANO=

METAR PAFM 270556Z AUTO 02006KT 10SM CLR M16/M21 A2999 RMK AO2 SLP171
     T11611211 11117 21167 56006 FZRANO=

METAR PAFM 270656Z AUTO 03007KT 10SM CLR M17/M22 A2999 RMK AO2
 SLP170 T11721217 FZRANO=

METAR PAFM 270756Z AUTO 03006KT 10SM CLR M17/M22 A2999 RMK AO2
 SLP170 T11721217 411171278 FZRANO=

METAR PAFM 270956Z AUTO 02009KT 10SM CLR M18/M22 A2999 RMK AO2 SLP170
     T11781217 FZRANO=


NOAA's National Weather Service
Alaska Aviation Weather Unit
6930 Sand Lake Road
Anchorage, AK 99502-1845
Disclaimer
Credits
Glossary
Privacy Policy
About Us
Career Opportunities
Contact AAWU Internet Services Site last modified: April, 17th 2012